SBSV/SSA METAR and TAF weather

Enter ICAO airport designator
Station Type Date Time Source
SBSV METAR 2021/09/28 05:00 UTC NOAA

SBSV 280500Z 10008KT 9999 SCT020 25/19 Q1017


Station Type Date Time Source
SBSV Decoded METAR 2021/09/28 05:00 UTC NOAA

Salvador Aeroporto , Brazil (SBSV) 12-54S 038-20W 13M
Sep 28, 2021 - 01:00 AM EDT / 2021.09.28 0500 UTC
Wind: from the E (100 degrees) at 9 MPH (8 KT):0
Visibility: greater than 7 mile(s):0
Sky conditions: partly cloudy
Temperature: 77 F (25 C)
Dew Point: 66 F (19 C)
Relative Humidity: 69%
Pressure (altimeter): 30.03 in. Hg (1017 hPa)
ob: SBSV 280500Z 10008KT 9999 SCT020 25/19 Q1017
cycle: 5

Station Type Date Time Source
SBSV TAF 2021/09/28 06:16 UTC NOAA

TAF SBSV 280100Z 2806/2906 14010KT 9999 SCT020 TN24/2808Z TX28/2815Z PROB30 2808/2811 BKN015 FEW023TCU
RMK PGN

Example: see airport list